Time;durP1;ratioP1;P1;durP2;ratioP2;P2;SDS_P1;SDS_P2;PMS_P1;PMS_P2;Temp;Humidity;BMP_temperature;BMP_pressure;BME280_temperature;BME280_humidity;BME280_pressure;Samples;Min_cycle;Max_cycle;Signal;HPM_P1;HPM_P2
2022/01/26 00:06:10;;;;;;;54.58;22.60;;;5.20;70.80;;;;;;5076836;28;20036;-20
2022/01/26 00:08:38;;;;;;;71.63;29.98;;;5.20;71.20;;;;;;5076573;28;20021;-20
2022/01/26 00:11:04;;;;;;;60.08;24.30;;;5.20;71.60;;;;;;5076748;28;20060;-20
2022/01/26 00:13:30;;;;;;;89.45;35.72;;;5.20;71.20;;;;;;5076196;28;20083;-20
2022/01/26 00:15:58;;;;;;;64.30;24.98;;;5.10;71.60;;;;;;5076219;28;20028;-20
2022/01/26 00:18:29;;;;;;;80.10;31.50;;;5.10;71.60;;;;;;5076090;28;20101;-22
2022/01/26 00:21:03;;;;;;;89.60;36.47;;;5.10;71.60;;;;;;5076144;28;20556;-20
2022/01/26 00:24:05;;;;;;;86.90;33.78;;;5.10;73.10;;;;;;5076436;28;20025;-20
2022/01/26 00:26:38;;;;;;;61.17;23.77;;;5.10;72.20;;;;;;5075595;28;20070;-20
2022/01/26 00:29:15;;;;;;;56.58;22.08;;;5.00;72.20;;;;;;5075994;28;20056;-20
2022/01/26 00:40:07;;;;;;;48.50;19.20;;;5.00;72.90;;;;;;5076015;28;20397;-20
2022/01/26 00:42:37;;;;;;;78.67;31.13;;;5.00;71.90;;;;;;5075883;28;20055;-20
2022/01/26 00:45:09;;;;;;;76.85;28.65;;;4.90;72.10;;;;;;5075752;28;20465;-20
2022/01/26 00:47:36;;;;;;;53.78;20.60;;;4.90;72.10;;;;;;5076054;28;20099;-20
2022/01/26 00:50:07;;;;;;;68.65;27.33;;;4.90;71.50;;;;;;5075662;28;20029;-20
2022/01/26 00:52:41;;;;;;;30.13;11.98;;;4.90;71.10;;;;;;5075758;28;20115;-20
2022/01/26 00:55:10;;;;;;;44.10;17.92;;;4.80;70.80;;;;;;5075576;28;20043;-20
2022/01/26 00:57:38;;;;;;;32.92;13.52;;;4.80;70.90;;;;;;5075382;28;20502;-20
2022/01/26 01:00:09;;;;;;;25.02;10.55;;;4.80;70.90;;;;;;5075425;28;20051;-20
2022/01/26 01:02:35;;;;;;;37.00;14.70;;;4.80;70.60;;;;;;5075497;28;20027;-20
2022/01/26 01:05:06;;;;;;;25.13;11.45;;;4.80;70.70;;;;;;5075938;28;20025;-20
2022/01/26 01:07:37;;;;;;;23.77;9.70;;;4.80;70.80;;;;;;5075387;28;20041;-20
2022/01/26 01:10:04;;;;;;;39.63;16.35;;;4.80;70.60;;;;;;5075661;28;20115;-20
2022/01/26 01:12:32;;;;;;;49.10;20.88;;;4.80;70.60;;;;;;5073425;28;20020;-20
2022/01/26 01:14:58;;;;;;;24.45;10.82;;;4.80;70.50;;;;;;5075194;28;20036;-20
2022/01/26 01:17:32;;;;;;;53.03;21.50;;;4.80;70.40;;;;;;5075474;28;20020;-20
2022/01/26 01:20:20;;;;;;;32.42;14.55;;;4.80;70.30;;;;;;5074935;28;20049;-20
2022/01/26 01:23:27;;;;;;;19.98;8.98;;;4.80;70.40;;;;;;5075453;28;20025;-20
2022/01/26 01:28:33;;;;;;;25.05;9.77;;;4.90;69.90;;;;;;5075199;28;20035;-20
2022/01/26 01:31:10;;;;;;;23.77;10.15;;;4.80;70.10;;;;;;5074937;28;20036;-20
2022/01/26 01:33:42;;;;;;;19.42;8.10;;;4.80;69.90;;;;;;5075461;28;20114;-20
2022/01/26 01:36:10;;;;;;;26.23;12.65;;;4.90;69.80;;;;;;5075107;28;20028;-20
2022/01/26 01:38:40;;;;;;;23.65;9.35;;;4.90;69.70;;;;;;5074592;28;20031;-20
2022/01/26 01:41:06;;;;;;;35.65;14.32;;;4.90;69.70;;;;;;5075461;28;20036;-20
2022/01/26 01:43:33;;;;;;;28.15;11.05;;;4.90;70.00;;;;;;5073319;28;20114;-20
2022/01/26 01:45:59;;;;;;;35.70;14.30;;;4.90;69.70;;;;;;5074883;28;20024;-20
2022/01/26 01:48:30;;;;;;;26.33;11.10;;;4.90;69.70;;;;;;5074496;28;20481;-20
2022/01/26 01:50:59;;;;;;;17.23;7.10;;;4.90;69.70;;;;;;5075409;28;20077;-20
2022/01/26 01:53:41;;;;;;;21.73;9.48;;;4.90;69.60;;;;;;5074742;28;20032;-20
2022/01/26 01:56:10;;;;;;;38.53;15.48;;;4.90;69.50;;;;;;5074728;28;20098;-20
2022/01/26 01:58:37;;;;;;;23.50;10.27;;;4.90;69.60;;;;;;5074049;28;20028;-20
2022/01/26 02:01:05;;;;;;;28.80;11.00;;;4.90;69.80;;;;;;5074165;28;20056;-20
2022/01/26 02:03:31;;;;;;;34.30;15.23;;;4.90;69.60;;;;;;5074841;28;20473;-20
2022/01/26 02:05:57;;;;;;;24.98;10.82;;;5.00;69.60;;;;;;5074158;28;20024;-20
2022/01/26 02:08:24;;;;;;;31.55;12.02;;;5.00;69.50;;;;;;5074052;28;20035;-20
2022/01/26 02:10:50;;;;;;;21.77;8.55;;;5.10;69.30;;;;;;5074106;28;20028;-20
2022/01/26 02:13:27;;;;;;;18.88;7.97;;;5.10;69.20;;;;;;5073924;28;20058;-20
2022/01/26 02:16:11;;;;;;;36.63;16.40;;;5.10;69.10;;;;;;5074022;28;20028;-20
2022/01/26 02:19:40;;;;;;;22.45;10.52;;;5.10;69.00;;;;;;5073582;28;20504;-20
2022/01/26 02:52:01;;;;;;;31.83;15.05;;;4.80;69.30;;;;;;5073892;28;20031;-20
2022/01/26 02:54:47;;;;;;;44.10;21.80;;;4.80;69.40;;;;;;5073432;28;20033;-21
2022/01/26 03:04:55;;;;;;;51.05;24.77;;;4.80;69.40;;;;;;5073621;28;20534;-20
2022/01/26 03:07:48;;;;;;;30.95;14.02;;;4.80;69.10;;;;;;5073171;28;20438;-20
2022/01/26 03:10:18;;;;;;;61.72;28.58;;;4.80;69.10;;;;;;5072844;28;20033;-20
2022/01/26 03:12:56;;;;;;;60.35;29.38;;;4.80;69.00;;;;;;5073066;28;20460;-20
2022/01/26 03:15:29;;;;;;;40.28;18.88;;;4.70;69.10;;;;;;5073711;28;20060;-20
2022/01/26 03:20:32;;;;;;;44.28;20.90;;;4.70;69.40;;;;;;5072717;28;20385;-20
2022/01/26 03:28:40;;;;;;;;;;;4.60;69.60;;;;;;5073507;28;20107;-20
2022/01/26 03:31:49;;;;;;;39.72;19.98;;;4.60;70.40;;;;;;5073349;28;19958;-20
2022/01/26 03:34:10;;;;;;;56.38;27.63;;;4.60;69.70;;;;;;5072893;28;20024;-20
2022/01/26 03:36:50;;;;;;;32.00;14.93;;;4.50;69.60;;;;;;5075314;28;20115;-20
2022/01/26 03:39:19;;;;;;;34.42;14.43;;;4.50;69.70;;;;;;5076970;28;20411;-20
2022/01/26 03:41:50;;;;;;;45.30;19.65;;;4.50;69.30;;;;;;5077300;28;20035;-20
2022/01/26 03:44:17;;;;;;;40.10;16.90;;;4.50;69.60;;;;;;5076974;28;20029;-20
2022/01/26 03:46:46;;;;;;;50.50;22.27;;;4.50;69.80;;;;;;5077162;28;20027;-19
2022/01/26 03:49:12;;;;;;;57.35;23.30;;;4.50;70.30;;;;;;5077136;28;20021;-21
2022/01/26 03:51:40;;;;;;;65.22;29.42;;;4.50;70.50;;;;;;5076779;28;20459;-20
2022/01/26 03:54:07;;;;;;;39.00;17.95;;;4.50;70.20;;;;;;5076728;28;20072;-20
2022/01/26 03:56:34;;;;;;;37.47;15.32;;;4.60;70.40;;;;;;5076519;28;20487;-20
2022/01/26 03:59:01;;;;;;;43.80;17.75;;;4.60;70.00;;;;;;5077609;28;20123;-20
2022/01/26 04:01:27;;;;;;;33.38;16.33;;;4.60;69.70;;;;;;5076895;28;20028;-20
2022/01/26 04:03:53;;;;;;;71.78;31.75;;;4.60;69.60;;;;;;5076818;28;20194;-20
2022/01/26 04:06:19;;;;;;;51.25;20.88;;;4.60;70.10;;;;;;5075125;28;20025;-20
2022/01/26 04:08:46;;;;;;;37.08;16.85;;;4.60;70.90;;;;;;5075262;28;20205;-20
2022/01/26 04:11:36;;;;;;;28.55;14.00;;;4.60;70.20;;;;;;5076388;28;20028;-20
2022/01/26 04:14:10;;;;;;;39.95;18.63;;;4.60;70.10;;;;;;5076299;28;20052;-20
2022/01/26 04:16:39;;;;;;;48.00;21.80;;;4.60;70.10;;;;;;5076121;28;20028;-20
2022/01/26 04:19:06;;;;;;;29.70;13.05;;;4.60;70.00;;;;;;5076138;28;20052;-20
2022/01/26 04:24:17;;;;;;;36.10;14.90;;;4.60;69.90;;;;;;5076230;28;20051;-20
2022/01/26 04:29:24;;;;;;;40.38;18.88;;;4.60;70.90;;;;;;5076092;28;20023;-20
2022/01/26 04:31:50;;;;;;;50.75;23.77;;;4.50;70.50;;;;;;5075998;28;20058;-20
2022/01/26 04:34:17;;;;;;;47.47;22.83;;;4.60;71.10;;;;;;5075897;28;20024;-20
2022/01/26 04:37:03;;;;;;;53.70;23.10;;;4.50;71.20;;;;;;5076208;28;20032;-20
2022/01/26 04:39:35;;;;;;;47.35;22.23;;;4.50;70.90;;;;;;5076453;28;20040;-20
2022/01/26 04:42:08;;;;;;;57.50;25.90;;;4.60;71.20;;;;;;5076154;28;20104;-20
2022/01/26 04:44:41;;;;;;;40.35;17.42;;;4.60;72.10;;;;;;5075889;28;20016;-20
2022/01/26 04:47:07;;;;;;;29.45;13.32;;;4.60;72.10;;;;;;5075386;28;20028;-20
2022/01/26 04:49:34;;;;;;;35.85;15.27;;;4.60;71.70;;;;;;5075650;28;20031;-20
2022/01/26 04:52:01;;;;;;;62.95;24.48;;;4.70;71.40;;;;;;5074768;28;20115;-20
2022/01/26 04:54:27;;;;;;;33.67;14.55;;;4.60;71.70;;;;;;5075536;28;20059;-20
2022/01/26 04:56:53;;;;;;;75.90;29.60;;;4.70;71.40;;;;;;5075603;28;20028;-20
2022/01/26 04:59:19;;;;;;;46.30;19.42;;;4.70;71.90;;;;;;5075337;28;20027;-20
2022/01/26 05:01:45;;;;;;;25.25;12.30;;;4.60;72.20;;;;;;5075989;28;20059;-20
2022/01/26 05:04:11;;;;;;;35.38;15.57;;;4.60;72.00;;;;;;5075447;28;20384;-20
2022/01/26 05:06:37;;;;;;;33.85;13.93;;;4.70;72.00;;;;;;5074211;28;20473;-20
2022/01/26 05:09:04;;;;;;;28.70;12.88;;;4.60;71.40;;;;;;5075466;28;20037;-20
2022/01/26 05:11:41;;;;;;;25.67;12.45;;;4.60;71.10;;;;;;5075336;28;20029;-20
2022/01/26 05:14:08;;;;;;;29.88;11.93;;;4.70;70.90;;;;;;5075489;28;20040;-19
2022/01/26 05:16:34;;;;;;;62.00;22.95;;;4.60;70.90;;;;;;5073760;28;20029;-20
2022/01/26 05:19:01;;;;;;;41.35;17.17;;;4.60;71.00;;;;;;5074915;28;20053;-20
2022/01/26 05:21:29;;;;;;;30.65;13.00;;;4.60;71.50;;;;;;5075464;28;20033;-20
2022/01/26 05:23:55;;;;;;;42.88;18.02;;;4.60;71.10;;;;;;5075387;28;20103;-20
2022/01/26 05:26:21;;;;;;;53.17;21.83;;;4.60;70.90;;;;;;5073617;28;20480;-20
2022/01/26 05:28:48;;;;;;;36.97;18.65;;;4.60;71.80;;;;;;5075179;28;20020;-20
2022/01/26 05:31:14;;;;;;;26.05;11.60;;;4.60;71.60;;;;;;5075052;28;20081;-20
2022/01/26 05:33:40;;;;;;;40.13;17.90;;;4.70;71.20;;;;;;5075463;28;20021;-20
2022/01/26 05:36:07;;;;;;;38.55;16.45;;;4.70;71.10;;;;;;5074821;28;20023;-20
2022/01/26 05:38:33;;;;;;;39.28;16.17;;;4.70;71.10;;;;;;5074560;28;20505;-20
2022/01/26 05:41:01;;;;;;;37.25;15.57;;;4.70;71.00;;;;;;5074664;28;20032;-20
2022/01/26 05:43:34;;;;;;;41.45;17.52;;;4.70;71.50;;;;;;5074816;28;20538;-20
2022/01/26 05:46:06;;;;;;;50.28;22.05;;;4.70;71.60;;;;;;5074645;28;20059;-20
2022/01/26 05:48:34;;;;;;;30.67;13.48;;;4.70;71.70;;;;;;5074778;28;20055;-20
2022/01/26 05:51:06;;;;;;;41.60;18.30;;;4.60;71.50;;;;;;5074787;28;20060;-20
2022/01/26 05:53:33;;;;;;;37.67;17.10;;;4.60;71.10;;;;;;5075660;28;20016;-20
2022/01/26 05:55:59;;;;;;;39.53;18.00;;;4.60;71.00;;;;;;5074430;28;20024;-20
2022/01/26 05:58:25;;;;;;;51.35;18.65;;;4.60;71.50;;;;;;5072605;28;20024;-20
2022/01/26 06:00:52;;;;;;;36.22;14.75;;;4.60;71.30;;;;;;5073747;28;20032;-21
2022/01/26 06:03:18;;;;;;;25.77;11.65;;;4.60;71.50;;;;;;5074337;28;20028;-20
2022/01/26 06:05:44;;;;;;;28.15;11.93;;;4.50;71.50;;;;;;5074735;28;20037;-20
2022/01/26 06:08:09;;;;;;;29.90;12.27;;;4.50;71.70;;;;;;5074344;28;20036;-20
2022/01/26 06:10:35;;;;;;;48.95;18.85;;;4.60;71.40;;;;;;5073896;28;20024;-20
2022/01/26 06:13:01;;;;;;;68.90;27.15;;;4.60;71.80;;;;;;5074288;28;20074;-20
2022/01/26 06:15:27;;;;;;;59.22;22.15;;;4.60;71.70;;;;;;5074032;28;20056;-20
2022/01/26 06:17:53;;;;;;;37.08;15.10;;;4.60;72.20;;;;;;5073937;28;20056;-20
2022/01/26 06:20:19;;;;;;;96.38;32.80;;;4.60;71.80;;;;;;5073436;28;20045;-20
2022/01/26 06:22:45;;;;;;;27.58;12.30;;;4.60;72.10;;;;;;5074557;28;20028;-20
2022/01/26 06:25:11;;;;;;;37.20;16.73;;;4.60;71.70;;;;;;5073839;28;20020;-20
2022/01/26 06:27:39;;;;;;;36.10;17.17;;;4.50;72.00;;;;;;5073865;28;20082;-20
2022/01/26 06:30:07;;;;;;;43.85;17.58;;;4.50;71.90;;;;;;5073896;28;20373;-20
2022/01/26 06:32:35;;;;;;;31.75;14.63;;;4.60;72.20;;;;;;5073441;28;20032;-20
2022/01/26 06:35:01;;;;;;;52.80;24.55;;;4.50;72.10;;;;;;5073658;28;20040;-20
2022/01/26 06:37:27;;;;;;;29.30;12.00;;;4.50;72.10;;;;;;5074227;28;20021;-20
2022/01/26 06:39:53;;;;;;;27.42;11.75;;;4.50;72.20;;;;;;5073468;28;20361;-19
2022/01/26 06:42:24;;;;;;;43.95;16.85;;;4.50;72.10;;;;;;5073472;28;20020;-20
2022/01/26 06:45:17;;;;;;;27.40;10.52;;;4.50;72.30;;;;;;5073502;28;20032;-20
2022/01/26 06:47:55;;;;;;;29.27;11.82;;;4.50;72.20;;;;;;5073354;28;20075;-20
2022/01/26 06:50:21;;;;;;;49.17;20.80;;;4.50;72.30;;;;;;5073296;28;20143;-20
2022/01/26 06:52:48;;;;;;;64.68;24.33;;;4.50;73.00;;;;;;5073446;28;20039;-20
2022/01/26 06:55:16;;;;;;;64.95;25.90;;;4.50;73.10;;;;;;5074518;28;20096;-20
2022/01/26 06:57:42;;;;;;;64.78;25.85;;;4.60;72.90;;;;;;5073875;28;20029;-21
2022/01/26 07:00:10;;;;;;;56.50;23.55;;;4.60;73.10;;;;;;5073795;28;20499;-20
2022/01/26 07:02:37;;;;;;;77.15;34.90;;;4.50;73.10;;;;;;5073384;28;20029;-20
2022/01/26 07:05:10;;;;;;;101.15;37.05;;;4.50;73.30;;;;;;5073254;28;20034;-20
2022/01/26 07:07:37;;;;;;;141.65;60.33;;;4.50;73.40;;;;;;5073663;28;20021;-20
2022/01/26 07:10:05;;;;;;;91.90;36.30;;;4.50;74.30;;;;;;5071747;28;20024;-20
2022/01/26 07:12:32;;;;;;;101.10;45.03;;;4.40;74.30;;;;;;5073259;28;20442;-20
2022/01/26 07:23:09;;;;;;;61.33;25.42;;;4.40;73.70;;;;;;5073015;28;20051;-20
2022/01/26 07:25:36;;;;;;;43.90;20.95;;;4.30;73.80;;;;;;5071796;28;20108;-20
2022/01/26 07:28:04;;;;;;;50.50;22.02;;;4.30;73.50;;;;;;5073458;28;20112;-20
2022/01/26 07:30:34;;;;;;;51.67;22.25;;;4.30;73.80;;;;;;5072769;28;20029;-20
2022/01/26 07:33:02;;;;;;;59.38;24.95;;;4.30;73.70;;;;;;5072956;28;20021;-20
2022/01/26 07:35:28;;;;;;;45.40;20.77;;;4.30;74.10;;;;;;5073838;28;20452;-19
2022/01/26 07:37:57;;;;;;;31.85;15.27;;;4.30;74.00;;;;;;5072991;28;20496;-20
2022/01/26 07:40:24;;;;;;;43.50;18.92;;;4.30;73.80;;;;;;5072920;28;20044;-20
2022/01/26 07:42:50;;;;;;;30.05;15.57;;;4.40;73.10;;;;;;5072778;28;20038;-20
2022/01/26 07:45:16;;;;;;;35.53;16.80;;;4.40;73.20;;;;;;5073049;28;20058;-20
2022/01/26 07:47:43;;;;;;;42.15;18.48;;;4.40;73.00;;;;;;5072813;28;20032;-20
2022/01/26 07:50:13;;;;;;;40.22;18.35;;;4.40;72.90;;;;;;5072754;28;20039;-20
2022/01/26 07:52:41;;;;;;;27.50;13.80;;;4.40;73.10;;;;;;5072803;28;20036;-20
2022/01/26 07:55:09;;;;;;;41.75;18.52;;;4.40;72.50;;;;;;5073170;28;20396;-20
2022/01/26 07:57:35;;;;;;;25.20;11.32;;;4.40;72.60;;;;;;5072675;28;20036;-20
2022/01/26 08:00:02;;;;;;;41.50;18.25;;;4.40;72.40;;;;;;5072526;28;20040;-20
2022/01/26 08:02:28;;;;;;;46.95;18.27;;;4.40;72.10;;;;;;5072722;28;20093;-20
2022/01/26 08:04:54;;;;;;;33.25;16.75;;;4.50;72.80;;;;;;5072618;28;20032;-20
2022/01/26 08:07:20;;;;;;;37.13;17.38;;;4.40;72.60;;;;;;5072923;28;20031;-20
2022/01/26 08:09:46;;;;;;;43.10;18.25;;;4.50;72.40;;;;;;5073122;28;20025;-20
2022/01/26 08:12:17;;;;;;;38.22;17.17;;;4.50;72.10;;;;;;5072311;28;20021;-22
2022/01/26 08:14:44;;;;;;;46.58;19.20;;;4.60;72.50;;;;;;5072520;28;20036;-20
2022/01/26 08:17:14;;;;;;;36.95;16.85;;;4.60;72.60;;;;;;5072772;28;20052;-19
2022/01/26 08:19:41;;;;;;;38.70;18.48;;;4.60;72.10;;;;;;5072222;28;20124;-20
2022/01/26 08:22:07;;;;;;;27.10;12.98;;;4.70;72.80;;;;;;5072792;28;20107;-20
2022/01/26 08:24:33;;;;;;;39.95;18.95;;;4.70;72.30;;;;;;5075986;28;20028;-20
2022/01/26 08:27:06;;;;;;;36.38;17.58;;;4.80;72.20;;;;;;5076118;28;20036;-20
2022/01/26 08:29:40;;;;;;;49.35;23.27;;;4.80;72.10;;;;;;5076087;28;20060;-20
2022/01/26 08:32:07;;;;;;;26.85;13.57;;;4.80;72.40;;;;;;5076410;28;20029;-20
2022/01/26 08:34:33;;;;;;;52.88;22.85;;;4.90;72.10;;;;;;5076199;28;20021;-20
2022/01/26 08:37:00;;;;;;;51.65;23.13;;;4.90;72.50;;;;;;5075977;28;20480;-20
2022/01/26 08:39:26;;;;;;;46.33;18.17;;;4.90;72.80;;;;;;5076187;28;20020;-20
2022/01/26 08:41:52;;;;;;;42.55;18.65;;;4.90;72.50;;;;;;5076095;28;20048;-20
2022/01/26 08:44:18;;;;;;;57.40;25.15;;;4.90;72.40;;;;;;5075785;28;20064;-20
2022/01/26 08:46:44;;;;;;;58.90;23.50;;;4.90;72.80;;;;;;5076043;28;20398;-20
2022/01/26 08:49:10;;;;;;;62.30;27.63;;;4.90;72.70;;;;;;5075730;28;20059;-20
2022/01/26 08:51:36;;;;;;;45.63;18.63;;;5.00;72.90;;;;;;5075718;28;20121;-20
2022/01/26 08:54:04;;;;;;;38.15;17.77;;;5.00;72.90;;;;;;5074407;28;20119;-20
2022/01/26 08:56:30;;;;;;;54.78;24.23;;;5.10;72.70;;;;;;5075437;28;20103;-21
2022/01/26 08:58:56;;;;;;;46.42;19.15;;;5.10;72.40;;;;;;5076348;28;20020;-20
2022/01/26 09:01:22;;;;;;;61.88;27.23;;;5.20;72.50;;;;;;5075462;28;20029;-20
2022/01/26 09:03:48;;;;;;;64.75;29.52;;;5.30;72.30;;;;;;5075632;28;20027;-20
2022/01/26 09:06:15;;;;;;;34.15;15.70;;;5.40;72.50;;;;;;5076086;28;20020;-20
2022/01/26 09:08:44;;;;;;;41.53;18.30;;;5.40;72.10;;;;;;5075732;28;20484;-20
2022/01/26 09:11:11;;;;;;;31.75;14.25;;;5.50;72.00;;;;;;5075326;28;20085;-20
2022/01/26 09:13:37;;;;;;;28.40;12.05;;;5.50;71.60;;;;;;5075176;28;20021;-20
2022/01/26 09:16:07;;;;;;;33.53;14.00;;;5.60;71.70;;;;;;5075343;28;20039;-20
2022/01/26 09:21:05;;;;;;;33.92;13.65;;;5.80;71.20;;;;;;5075135;28;20075;-20
2022/01/26 09:23:32;;;;;;;50.40;20.95;;;5.90;71.30;;;;;;5075110;28;20116;-20
2022/01/26 09:25:58;;;;;;;36.28;15.43;;;5.90;71.00;;;;;;5075080;28;20029;-20
2022/01/26 09:28:25;;;;;;;30.55;12.82;;;6.00;70.90;;;;;;5074700;28;20024;-20
2022/01/26 09:30:52;;;;;;;25.88;12.52;;;6.00;70.80;;;;;;5074991;28;20107;-20
2022/01/26 09:33:18;;;;;;;43.63;19.20;;;6.10;70.50;;;;;;5075039;28;20051;-20
2022/01/26 09:35:44;;;;;;;44.45;17.83;;;6.20;70.40;;;;;;5075041;28;20399;-20
2022/01/26 09:38:11;;;;;;;50.08;20.65;;;6.30;70.60;;;;;;5075140;28;20115;-20
2022/01/26 09:40:38;;;;;;;57.78;23.98;;;6.40;70.50;;;;;;5074989;28;20040;-20
2022/01/26 09:43:04;;;;;;;35.15;15.00;;;6.40;70.40;;;;;;5073271;28;20033;-20
2022/01/26 09:45:34;;;;;;;26.90;11.77;;;6.50;70.20;;;;;;5074963;28;20040;-20
2022/01/26 09:48:04;;;;;;;35.75;15.57;;;6.60;70.00;;;;;;5075016;28;20029;-20
2022/01/26 09:50:32;;;;;;;43.13;17.15;;;6.70;69.70;;;;;;5074591;28;20028;-20
2022/01/26 09:52:58;;;;;;;28.05;12.55;;;6.80;69.60;;;;;;5074748;28;20027;-20
2022/01/26 09:55:26;;;;;;;54.25;22.17;;;6.90;69.50;;;;;;5074519;28;20477;-20
2022/01/26 09:58:02;;;;;;;62.50;26.75;;;7.00;69.30;;;;;;5074673;28;20033;-22
2022/01/26 10:00:28;;;;;;;24.92;10.75;;;7.10;69.10;;;;;;5074357;28;20029;-20
2022/01/26 10:02:59;;;;;;;43.05;21.55;;;7.20;68.90;;;;;;5074241;28;20532;-20
2022/01/26 10:05:26;;;;;;;52.65;24.45;;;7.30;68.70;;;;;;5074245;28;20025;-20
2022/01/26 10:16:15;;;;;;;60.03;26.55;;;7.60;68.20;;;;;;5074499;28;20036;-20
2022/01/26 10:18:41;;;;;;;45.53;20.23;;;7.60;67.90;;;;;;5074037;28;20028;-23
2022/01/26 10:21:08;;;;;;;62.05;27.73;;;7.70;67.90;;;;;;5073928;28;20472;-20
2022/01/26 10:23:41;;;;;;;61.13;26.98;;;7.70;67.80;;;;;;5074223;28;20024;-20
2022/01/26 10:26:14;;;;;;;69.38;30.70;;;7.80;67.60;;;;;;5073867;28;20036;-20
2022/01/26 10:28:45;;;;;;;46.47;20.13;;;7.80;67.50;;;;;;5073862;28;20488;-20
2022/01/26 10:31:22;;;;;;;52.75;23.50;;;7.80;67.50;;;;;;5074069;28;20090;-20
2022/01/26 10:33:57;;;;;;;39.92;17.17;;;7.80;67.40;;;;;;5073878;28;20025;-20
2022/01/26 10:36:25;;;;;;;36.92;17.58;;;7.90;67.40;;;;;;5073819;28;20044;-20
2022/01/26 10:39:05;;;;;;;30.75;14.15;;;7.90;67.40;;;;;;5073874;28;20380;-20
2022/01/26 10:41:31;;;;;;;59.00;27.55;;;7.90;67.30;;;;;;5073899;28;20044;-20
2022/01/26 10:43:59;;;;;;;44.53;21.00;;;8.00;67.20;;;;;;5073471;28;20032;-20
2022/01/26 10:46:32;;;;;;;35.97;17.27;;;8.10;67.00;;;;;;5072745;28;20453;-20
2022/01/26 10:54:36;;;;;;;47.92;20.27;;;8.30;66.60;;;;;;5073414;28;20374;-21
2022/01/26 10:57:08;;;;;;;67.43;29.42;;;8.40;66.60;;;;;;5073776;28;20040;-20
2022/01/26 10:59:40;;;;;;;59.58;26.17;;;8.40;66.40;;;;;;5073471;28;20046;-20
2022/01/26 11:02:11;;;;;;;37.17;17.40;;;8.50;66.30;;;;;;5073288;28;20103;-20
2022/01/26 11:04:42;;;;;;;67.82;30.08;;;8.60;66.40;;;;;;5073073;28;20078;-20
2022/01/26 11:07:13;;;;;;;66.53;29.30;;;8.60;65.80;;;;;;5073285;28;20028;-20
2022/01/26 11:09:41;;;;;;;50.75;24.10;;;8.70;65.70;;;;;;5073196;28;20481;-20
2022/01/26 11:12:16;;;;;;;45.17;20.20;;;8.70;65.80;;;;;;5073279;28;20019;-20
2022/01/26 11:14:47;;;;;;;30.40;13.52;;;8.80;65.80;;;;;;5073092;28;20032;-20
2022/01/26 11:17:31;;;;;;;41.22;18.95;;;8.90;65.80;;;;;;5073992;28;20035;-21
2022/01/26 11:19:58;;;;;;;49.80;22.30;;;9.00;65.60;;;;;;5072966;28;20070;-20
2022/01/26 11:22:28;;;;;;;41.33;18.42;;;9.20;65.60;;;;;;5072868;28;20032;-20
2022/01/26 11:25:07;;;;;;;73.07;33.30;;;9.40;65.40;;;;;;5073066;28;20538;-20
2022/01/26 11:27:36;;;;;;;69.70;30.83;;;9.50;64.80;;;;;;5073411;28;20021;-20
2022/01/26 11:30:40;;;;;;;68.65;30.25;;;9.70;64.30;;;;;;5073744;28;20020;-20
2022/01/26 11:33:21;;;;;;;70.23;34.90;;;9.90;64.30;;;;;;5072086;28;20116;-20
2022/01/26 11:35:50;;;;;;;71.18;32.67;;;10.20;63.40;;;;;;5073295;28;20024;-20
2022/01/26 11:46:54;;;;;;;53.10;23.45;;;10.70;62.30;;;;;;5073208;28;20031;-20
2022/01/26 11:49:33;;;;;;;79.03;37.85;;;10.90;61.70;;;;;;5073098;28;20035;-19
2022/01/26 11:51:59;;;;;;;78.90;36.97;;;10.90;61.00;;;;;;5072845;28;20493;-20
2022/01/26 11:54:39;;;;;;;60.58;30.00;;;11.00;60.40;;;;;;5072637;28;20032;-21
2022/01/26 11:57:12;;;;;;;74.60;34.22;;;11.10;60.70;;;;;;5074613;28;20427;-20
2022/01/26 11:59:47;;;;;;;69.63;33.45;;;11.10;60.30;;;;;;5076575;28;20047;-20
2022/01/26 12:02:36;;;;;;;72.07;34.70;;;11.10;60.30;;;;;;5076746;28;20028;-22
2022/01/26 12:05:13;;;;;;;61.67;30.08;;;11.20;59.10;;;;;;5076644;28;20021;-20
2022/01/26 12:08:09;;;;;;;79.13;37.10;;;11.30;59.80;;;;;;5076845;28;20033;-20
2022/01/26 12:10:36;;;;;;;48.95;24.65;;;11.50;57.30;;;;;;5054249;28;20402;-20
2022/01/26 12:13:12;;;;;;;52.33;26.90;;;11.60;58.90;;;;;;5054275;28;20033;-20
2022/01/26 12:15:48;;;;;;;54.28;27.80;;;11.80;58.80;;;;;;5054464;28;20064;-20
2022/01/26 12:19:10;;;;;;;67.53;33.92;;;11.90;58.90;;;;;;5054092;28;20112;-20
2022/01/26 12:32:46;;;;;;;56.72;29.92;;;12.30;57.30;;;;;;5054189;28;20099;-20
2022/01/26 12:38:19;;;;;;;57.90;29.60;;;12.20;56.60;;;;;;5054023;28;20031;-19
2022/01/26 12:43:49;;;;;;;44.03;22.58;;;12.20;56.90;;;;;;5054117;28;20166;-20
2022/01/26 12:46:21;;;;;;;62.20;30.20;;;12.10;56.60;;;;;;5058254;28;20032;-21
2022/01/26 12:48:51;;;;;;;50.13;26.92;;;12.00;55.50;;;;;;5075817;28;20028;-20
2022/01/26 12:51:18;;;;;;;54.60;27.77;;;12.00;56.60;;;;;;5075712;28;20031;-20
2022/01/26 12:53:44;;;;;;;61.80;32.15;;;11.90;55.70;;;;;;5075975;28;20035;-20
2022/01/26 12:56:13;;;;;;;52.63;27.55;;;11.90;55.80;;;;;;5075630;28;20035;-20
2022/01/26 12:58:43;;;;;;;59.95;32.22;;;11.90;56.40;;;;;;5075808;28;20056;-20
2022/01/26 13:01:10;;;;;;;58.50;29.95;;;11.80;56.30;;;;;;5075458;28;20032;-20
2022/01/26 13:03:38;;;;;;;64.57;33.08;;;11.70;55.70;;;;;;5075531;28;20028;-20
2022/01/26 13:06:14;;;;;;;59.17;32.65;;;11.60;55.40;;;;;;5075488;28;20566;-20
2022/01/26 13:09:01;;;;;;;42.47;22.95;;;11.60;56.60;;;;;;5074811;28;20025;-20
2022/01/26 13:11:32;;;;;;;52.28;26.30;;;11.50;56.60;;;;;;5075415;28;20112;-20
2022/01/26 13:14:14;;;;;;;56.05;29.75;;;11.40;57.20;;;;;;5075465;28;20465;-20
2022/01/26 13:30:11;;;;;;;59.53;31.67;;;11.40;56.40;;;;;;5075383;28;20383;-20
2022/01/26 13:35:20;;;;;;;64.38;33.53;;;11.40;56.60;;;;;;5074961;28;20089;-20
2022/01/26 13:40:30;;;;;;;79.07;38.92;;;11.40;55.70;;;;;;5074657;28;20029;-20
2022/01/26 13:51:07;;;;;;;41.67;21.25;;;11.90;54.40;;;;;;5075329;28;20035;-19
2022/01/26 13:53:46;;;;;;;65.65;34.42;;;12.30;54.80;;;;;;5074915;28;20033;-20
2022/01/26 13:56:31;;;;;;;72.13;35.42;;;12.70;54.00;;;;;;5074456;28;20029;-19
2022/01/26 13:59:10;;;;;;;60.20;31.17;;;13.10;52.30;;;;;;5074674;28;20021;-20
2022/01/26 14:01:41;;;;;;;60.22;32.63;;;13.30;52.10;;;;;;5074658;28;20086;-19
2022/01/26 14:04:07;;;;;;;60.90;32.85;;;13.50;51.60;;;;;;5074454;28;20029;-19
2022/01/26 14:06:34;;;;;;;65.13;35.03;;;13.80;51.90;;;;;;5074140;28;20488;-19
2022/01/26 14:09:00;;;;;;;59.22;29.35;;;13.90;50.60;;;;;;5074162;28;20024;-19
2022/01/26 14:11:26;;;;;;;68.45;35.95;;;13.90;50.90;;;;;;5074468;28;20020;-20
2022/01/26 14:13:55;;;;;;;58.90;32.35;;;14.00;50.30;;;;;;5074327;28;20023;-19
2022/01/26 14:16:23;;;;;;;66.18;35.50;;;14.10;50.30;;;;;;5073895;28;20040;-20
2022/01/26 14:26:39;;;;;;;68.13;35.75;;;14.10;49.60;;;;;;5073755;28;20028;-19
2022/01/26 14:29:15;;;;;;;60.05;32.00;;;14.00;50.00;;;;;;5074078;28;20093;-19
2022/01/26 14:40:03;;;;;;;51.22;24.58;;;13.20;48.80;;;;;;5073639;28;19904;-19
2022/01/26 15:29:59;;;;;;;35.40;19.30;;;9.90;57.30;;;;;;5073369;28;20031;-19
2022/01/26 15:41:56;;;;;;;51.22;24.70;;;9.20;58.40;;;;;;5072950;28;20094;-20
2022/01/26 15:44:39;;;;;;;57.40;28.77;;;9.10;58.60;;;;;;5072607;28;20545;-20
2022/01/26 15:49:55;;;;;;;37.67;18.15;;;8.90;59.00;;;;;;5073246;28;20090;-20
2022/01/26 16:21:46;;;;;;;58.38;24.88;;;7.40;60.90;;;;;;5072705;28;20106;-20
2022/01/26 16:38:15;;;;;;;59.90;26.98;;;6.80;61.80;;;;;;5073048;28;20025;-20
2022/01/26 17:46:40;;;;;;;66.40;32.20;;;4.80;64.20;;;;;;5075132;28;20032;-21
2022/01/26 17:46:57;;;;;;;51.90;24.65;;;4.80;65.60;;;;;;5074494;28;20028;-20
2022/01/26 18:32:47;;;;;;;55.13;25.63;;;3.70;67.00;;;;;;5074421;28;20031;-20
2022/01/26 18:46:54;;;;;;;72.00;33.88;;;3.40;66.30;;;;;;5073716;28;20040;-20
2022/01/26 18:49:14;;;;;;;32.08;14.38;;;3.30;66.50;;;;;;5071655;28;20052;-20
2022/01/26 18:51:55;;;;;;;68.20;27.77;;;3.30;66.40;;;;;;5073489;28;20068;-20
2022/01/26 18:54:24;;;;;;;33.80;15.25;;;3.20;66.30;;;;;;5073587;28;20350;-20
2022/01/26 18:56:52;;;;;;;32.20;14.15;;;3.20;66.40;;;;;;5073434;28;20035;-20
2022/01/26 18:59:19;;;;;;;28.35;13.55;;;3.10;66.40;;;;;;5073647;28;20075;-20
2022/01/26 19:01:46;;;;;;;28.35;13.18;;;3.10;66.30;;;;;;5072035;28;20404;-20
2022/01/26 19:04:12;;;;;;;31.05;13.73;;;3.00;66.30;;;;;;5072098;28;20029;-20
2022/01/26 19:06:40;;;;;;;52.47;22.75;;;2.90;66.30;;;;;;5072821;28;20392;-20
2022/01/26 19:09:07;;;;;;;70.07;33.38;;;2.90;66.40;;;;;;5073633;28;20028;-20
2022/01/26 19:11:34;;;;;;;38.15;18.38;;;2.80;66.50;;;;;;5074050;28;20027;-20
2022/01/26 19:14:02;;;;;;;26.38;12.07;;;2.80;66.50;;;;;;5073408;28;20112;-20